Terminal Aerodrome Forecast
Issued by NWS

Home | Current Version | Previous Version | Text Only | Print | Product List | Glossary On
Versions: 1 2 3 4 5 6 7 8 9 10 11 12
866
FTUS46 KMTR 102340
TAFSJC
TAF
KSJC 102340Z 1100/1124 32006KT P6SM FEW070 SCT130 BKN200
     FM110400 VRB03KT P6SM FEW150 SCT200
     FM111500 16004KT 6SM HZ FEW150 SCT200
     FM111900 32004KT P6SM SCT200
     FM112200 31006KT P6SM FEW200=

USA.gov is the U.S. government's official web portal to all federal, state and local government web resources and services.